Island Breeze — WDA3596 — position and weather

sailwx.info

Track history (hours):
 
Tides and Currents Weather Stations Pressure Air Temp Water Temp Dewpoint Dewpoint Depression Visibility Wind Speed Wind Dir Waves Ship Positions

Island Breeze

Owner: Island Tug & Barge Co., Seattle, WA. More information available from US FCC via Universal Licensing System and Coast Guard Vessel Documentation Center.

Last reported at 2015-Jul-05 04:33 UTC. Time now 2015-Jul-07 04:36 UTC.
Position N 45°31' W 122°40'.

Length 18 m.

Type: Tug. MMSI: 366800090.

Date/timePositionNaut miles runAvg speedWind from/ knotsBaromVisibWave heightAir tempDewpointWater temp
2015-Jul-05 04:33N 45°31' W 122°40'0 0.0
2015-Jul-05 03:33N 45°31' W 122°40'4 3.8
2015-Jul-05 02:33N 45°34' W 122°43'0 0.0
2015-Jul-04 13:31N 45°34' W 122°43'0 0.0
2015-Jul-03 04:34N 45°34' W 122°43'0 0.0
2015-Jul-03 03:33N 45°34' W 122°43'0 0.0
2015-Jul-03 02:32N 45°34' W 122°43'6 5.9
2015-Jul-03 01:33N 45°39' W 122°46'9 9.4
2015-Jul-03 00:33N 45°48' W 122°47'10 9.4
2015-Jul-02 23:31N 45°58' W 122°49'9 9.2
2015-Jul-02 22:30N 46°06' W 122°57'  
Track history (hours):
 
Tides and Currents Weather Stations Pressure Air Temp Water Temp Dewpoint Dewpoint Depression Visibility Wind Speed Wind Dir Waves Ship Positions

Island Breeze

Owner: Island Tug & Barge Co., Seattle, WA. More information available from US FCC via Universal Licensing System and Coast Guard Vessel Documentation Center.

Last reported at 2015-Jul-05 04:33 UTC. Time now 2015-Jul-07 04:36 UTC.
Position N 45°31' W 122°40'.

Length 18 m.

Type: Tug. MMSI: 366800090.

Date/timePositionNaut miles runAvg speedWind from/ knotsBaromVisibWave heightAir tempDewpointWater temp
2015-Jul-05 04:33N 45°31' W 122°40'0 0.0
2015-Jul-05 03:33N 45°31' W 122°40'4 3.8
2015-Jul-05 02:33N 45°34' W 122°43'0 0.0
2015-Jul-04 13:31N 45°34' W 122°43'0 0.0
2015-Jul-03 04:34N 45°34' W 122°43'0 0.0
2015-Jul-03 03:33N 45°34' W 122°43'0 0.0
2015-Jul-03 02:32N 45°34' W 122°43'6 5.9
2015-Jul-03 01:33N 45°39' W 122°46'9 9.4
2015-Jul-03 00:33N 45°48' W 122°47'10 9.4
2015-Jul-02 23:31N 45°58' W 122°49'9 9.2
2015-Jul-02 22:30N 46°06' W 122°57'  

Dump ship's entire track history